createdAt,value
2022-12-01T00:01:10.398Z,34.85
2022-12-01T00:03:41.152Z,37.72
2022-12-01T00:06:26.755Z,38.27
2022-12-01T00:09:19.227Z,34.67
2022-12-01T00:11:53.515Z,31.58
2022-12-01T00:14:25.063Z,33.35
2022-12-01T00:16:58.559Z,39.22
2022-12-01T00:19:30.038Z,34.05
2022-12-01T00:22:02.747Z,37.97
2022-12-01T00:24:40.579Z,42.00
2022-12-01T00:27:51.032Z,38.35
2022-12-01T00:30:22.803Z,34.95
2022-12-01T00:32:51.606Z,32.72
2022-12-01T00:35:25.279Z,43.63
2022-12-01T00:37:56.195Z,32.17
2022-12-01T00:40:28.912Z,33.60
2022-12-01T00:45:28.971Z,36.95
2022-12-01T00:48:06.932Z,42.50
2022-12-01T00:50:40.835Z,45.83
2022-12-01T00:53:09.011Z,47.38
2022-12-01T00:55:43.303Z,34.60
2022-12-01T00:58:16.935Z,37.00
2022-12-01T01:00:48.835Z,39.20
2022-12-01T01:03:19.965Z,43.22
2022-12-01T01:06:07.739Z,36.03
2022-12-01T01:08:38.853Z,49.53
2022-12-01T01:11:32.375Z,45.25
2022-12-01T01:14:04.468Z,38.85
2022-12-01T01:16:36.645Z,45.47
2022-12-01T01:22:33.622Z,39.15
2022-12-01T01:25:01.968Z,42.50
2022-12-01T01:28:10.774Z,43.88
2022-12-01T01:30:44.061Z,46.38
2022-12-01T01:39:31.914Z,63.90
2022-12-01T01:42:09.852Z,48.42
2022-12-01T01:47:50.329Z,41.88
2022-12-01T01:50:32.968Z,48.45
2022-12-01T01:53:26.621Z,48.80
2022-12-01T01:56:05.536Z,49.08
2022-12-01T01:58:46.681Z,55.88
2022-12-01T02:03:54.737Z,45.38
2022-12-01T02:06:35.512Z,43.40
2022-12-01T02:09:20.798Z,37.45
2022-12-01T02:12:14.619Z,45.97
2022-12-01T02:14:47.858Z,44.92
2022-12-01T02:17:21.346Z,45.00
2022-12-01T02:20:10.999Z,51.42
2022-12-01T02:22:53.426Z,57.42
2022-12-01T02:25:33.104Z,55.15
2022-12-01T02:28:28.887Z,37.20
2022-12-01T02:31:20.171Z,50.50
2022-12-01T02:34:06.302Z,40.92
2022-12-01T02:36:47.789Z,42.85
2022-12-01T02:39:30.889Z,42.83
2022-12-01T02:42:13.417Z,41.75
2022-12-01T02:44:48.787Z,46.63
2022-12-01T02:47:18.690Z,38.63
2022-12-01T02:49:58.120Z,42.45
2022-12-01T02:52:32.127Z,45.15
2022-12-01T02:55:09.566Z,41.53
2022-12-01T02:57:41.549Z,45.67
2022-12-01T03:00:26.310Z,47.42
2022-12-01T03:03:20.938Z,42.15
2022-12-01T03:06:18.494Z,42.40
2022-12-01T03:08:50.918Z,42.63
2022-12-01T03:11:55.254Z,38.85
2022-12-01T03:14:43.789Z,37.13
2022-12-01T03:17:18.618Z,41.67
2022-12-01T03:20:18.899Z,30.23
2022-12-01T03:22:58.485Z,42.97
2022-12-01T03:25:29.168Z,39.45
2022-12-01T03:28:42.183Z,40.60
2022-12-01T03:31:21.423Z,38.67
2022-12-01T03:34:06.565Z,38.03
2022-12-01T03:36:42.644Z,41.05
2022-12-01T03:39:19.986Z,41.95
2022-12-01T03:42:01.817Z,42.70
2022-12-01T03:44:45.007Z,32.30
2022-12-01T03:47:22.534Z,37.78
2022-12-01T04:07:28.872Z,42.42
2022-12-01T04:10:05.539Z,40.75
2022-12-01T04:12:52.685Z,37.80
2022-12-01T04:15:22.081Z,30.45
2022-12-01T04:17:52.717Z,38.85
2022-12-01T05:09:40.144Z,37.17
2022-12-01T05:12:08.397Z,37.80
2022-12-01T05:14:36.573Z,33.42
2022-12-01T05:17:07.474Z,37.30
2022-12-01T05:19:56.490Z,39.72
2022-12-01T05:22:42.785Z,35.72
2022-12-01T05:25:12.829Z,29.85
2022-12-01T05:27:44.230Z,33.83
2022-12-01T05:30:12.334Z,58.00
2022-12-01T05:32:46.169Z,40.83
2022-12-01T05:35:14.401Z,36.50
2022-12-01T05:37:51.477Z,34.10
2022-12-01T05:48:05.882Z,37.53
2022-12-01T05:50:40.010Z,38.78
2022-12-01T05:53:17.538Z,38.97
2022-12-01T05:56:02.880Z,39.88
2022-12-01T05:58:37.243Z,35.55
2022-12-01T06:01:23.187Z,30.92
2022-12-01T06:03:51.407Z,32.20
2022-12-01T06:06:22.122Z,34.08
2022-12-01T06:08:53.234Z,48.05
2022-12-01T06:11:21.197Z,38.65
2022-12-01T06:13:51.926Z,28.27
2022-12-01T06:16:20.351Z,28.40
2022-12-01T06:18:48.415Z,40.38
2022-12-01T06:21:16.355Z,45.50
2022-12-01T06:23:45.391Z,46.10
2022-12-01T06:26:18.415Z,29.70
2022-12-01T06:28:46.671Z,40.35
2022-12-01T06:31:14.611Z,30.35
2022-12-01T06:33:42.708Z,43.53
2022-12-01T06:36:11.875Z,34.25
2022-12-01T06:38:40.818Z,37.22
2022-12-01T06:41:08.883Z,33.08
2022-12-01T06:43:40.566Z,34.95
2022-12-01T06:48:36.483Z,37.03
2022-12-01T06:51:04.371Z,35.80
2022-12-01T06:53:32.324Z,46.30
2022-12-01T06:56:06.748Z,26.92
2022-12-01T06:58:38.000Z,29.27
2022-12-01T07:01:11.946Z,28.17
2022-12-01T07:03:40.272Z,33.03
2022-12-01T07:06:08.204Z,31.58
2022-12-01T07:08:36.375Z,33.78
2022-12-01T07:11:09.096Z,37.28
2022-12-01T07:13:41.042Z,34.72
2022-12-01T07:16:09.895Z,24.45
2022-12-01T07:18:38.948Z,39.00
2022-12-01T07:21:11.885Z,26.58
2022-12-01T07:23:40.160Z,26.10
2022-12-01T07:26:13.720Z,27.42
2022-12-01T07:28:46.064Z,40.60
2022-12-01T07:31:14.168Z,34.40
2022-12-01T07:33:42.116Z,24.90
2022-12-01T07:36:13.804Z,33.83
2022-12-01T07:41:22.014Z,24.80
2022-12-01T07:43:51.968Z,29.45
2022-12-01T07:46:23.539Z,26.73
2022-12-01T07:48:52.645Z,29.98
2022-12-01T07:51:24.287Z,35.30
2022-12-01T07:56:20.546Z,28.38
2022-12-01T07:58:52.097Z,35.95
2022-12-01T08:01:21.272Z,28.05
2022-12-01T08:03:58.951Z,29.00
2022-12-01T08:06:27.636Z,20.77
2022-12-01T08:08:57.039Z,26.48
2022-12-01T08:11:26.519Z,33.15
2022-12-01T08:13:54.622Z,31.55
2022-12-01T08:16:23.300Z,30.33
2022-12-01T08:18:51.664Z,25.83
2022-12-01T08:21:21.013Z,30.70
2022-12-01T08:23:52.346Z,24.10
2022-12-01T08:26:23.949Z,22.67
2022-12-01T08:31:27.398Z,27.23
2022-12-01T08:33:57.297Z,33.40
2022-12-01T08:36:25.687Z,28.02
2022-12-01T08:38:54.794Z,27.45
2022-12-01T08:41:24.293Z,27.40
2022-12-01T08:44:00.702Z,27.40
2022-12-01T08:46:30.206Z,21.55
2022-12-01T08:48:58.453Z,19.10
2022-12-01T08:51:26.913Z,26.52
2022-12-01T08:53:55.623Z,25.23
2022-12-01T08:56:35.810Z,33.20
2022-12-01T08:59:07.642Z,22.45
2022-12-01T09:01:57.325Z,26.13
2022-12-01T09:04:28.026Z,27.05
2022-12-01T09:06:56.715Z,25.88
2022-12-01T09:09:29.422Z,28.38
2022-12-01T09:11:57.822Z,21.80
2022-12-01T09:14:25.717Z,25.38
2022-12-01T09:16:54.760Z,24.35
2022-12-01T09:19:24.992Z,25.10
2022-12-01T09:21:53.883Z,22.43
2022-12-01T09:24:21.787Z,23.83
2022-12-01T09:26:56.973Z,25.65
2022-12-01T09:29:24.992Z,24.48
2022-12-01T09:31:56.445Z,31.27
2022-12-01T09:34:27.877Z,26.35
2022-12-01T09:36:59.270Z,21.33
2022-12-01T09:39:27.140Z,26.13
2022-12-01T09:41:57.052Z,27.80
2022-12-01T09:44:28.502Z,20.92
2022-12-01T09:47:11.470Z,32.15
2022-12-01T09:49:43.734Z,18.08
2022-12-01T09:52:16.773Z,18.05
2022-12-01T09:54:45.740Z,16.90
2022-12-01T09:57:19.170Z,17.63
2022-12-01T09:59:47.957Z,20.42
2022-12-01T10:02:28.448Z,20.08
2022-12-01T10:04:57.657Z,19.23
2022-12-01T10:07:28.085Z,13.82
2022-12-01T10:10:00.523Z,20.55
2022-12-01T10:12:33.900Z,20.27
2022-12-01T10:15:21.948Z,19.63
2022-12-01T10:18:08.822Z,17.38
2022-12-01T10:20:49.156Z,21.33
2022-12-01T10:23:30.636Z,22.05
2022-12-01T10:28:36.803Z,16.90
2022-12-01T10:31:13.952Z,28.67
2022-12-01T10:33:47.440Z,26.90
2022-12-01T10:36:15.430Z,26.25
2022-12-01T10:38:43.491Z,32.38
2022-12-01T10:41:13.365Z,24.70
2022-12-01T10:43:50.283Z,30.23
2022-12-01T10:46:24.986Z,24.08
2022-12-01T10:48:54.173Z,29.45
2022-12-01T10:51:26.270Z,30.55
2022-12-01T10:54:01.168Z,25.58
2022-12-01T10:56:29.176Z,26.30
2022-12-01T10:58:58.787Z,28.88
2022-12-01T11:01:29.004Z,25.45
2022-12-01T11:04:03.741Z,26.35
2022-12-01T11:06:32.150Z,20.02
2022-12-01T11:09:01.801Z,25.58
2022-12-01T11:11:37.634Z,27.35
2022-12-01T11:14:18.549Z,33.65
2022-12-01T11:16:47.737Z,23.80
2022-12-01T11:19:27.889Z,18.70
2022-12-01T11:21:58.479Z,28.95
2022-12-01T11:24:42.274Z,25.90
2022-12-01T11:27:30.490Z,24.92
2022-12-01T11:30:04.904Z,18.85
2022-12-01T11:32:40.362Z,26.75
2022-12-01T11:35:14.382Z,26.50
2022-12-01T11:38:13.123Z,25.02
2022-12-01T11:40:45.544Z,21.48
2022-12-01T11:43:21.246Z,23.05
2022-12-01T11:45:49.868Z,20.02
2022-12-01T11:48:17.798Z,19.17
2022-12-01T11:51:00.426Z,26.35
2022-12-01T11:53:28.403Z,19.23
2022-12-01T11:56:15.395Z,22.08
2022-12-01T11:58:44.524Z,19.38
2022-12-01T12:01:21.992Z,31.45
2022-12-01T12:04:10.544Z,18.67
2022-12-01T12:06:50.406Z,24.73
2022-12-01T12:09:18.204Z,23.77
2022-12-01T12:11:54.135Z,26.88
2022-12-01T12:14:36.831Z,16.08
2022-12-01T12:17:07.895Z,26.58
2022-12-01T12:20:07.120Z,22.33
2022-12-01T12:22:55.219Z,25.50
2022-12-01T12:25:24.603Z,35.88
2022-12-01T12:27:58.859Z,20.67
2022-12-01T12:30:36.361Z,22.52
2022-12-01T12:33:14.709Z,29.38
2022-12-01T12:35:50.070Z,22.77
2022-12-01T12:38:30.329Z,26.85
2022-12-01T12:41:06.404Z,26.98
2022-12-01T12:43:53.071Z,28.25
2022-12-01T12:46:24.534Z,24.20
2022-12-01T12:52:08.770Z,22.70
2022-12-01T12:55:38.625Z,30.73
2022-12-01T12:58:33.843Z,23.63
2022-12-01T13:01:18.543Z,28.20
2022-12-01T13:04:07.021Z,25.55
2022-12-01T13:06:56.464Z,25.77
2022-12-01T13:09:27.556Z,27.60
2022-12-01T13:12:09.890Z,27.55
2022-12-01T13:14:41.629Z,22.83
2022-12-01T13:17:19.964Z,22.70
2022-12-01T13:19:48.943Z,21.10
2022-12-01T13:22:19.798Z,34.97
2022-12-01T13:27:44.768Z,19.13
2022-12-01T13:30:20.541Z,19.00
2022-12-01T13:33:15.457Z,28.65
2022-12-01T13:36:45.125Z,26.40
2022-12-01T13:43:23.473Z,17.90
2022-12-01T13:46:17.872Z,28.13
2022-12-01T13:52:47.905Z,24.08
2022-12-01T13:55:16.053Z,30.85
2022-12-01T13:57:46.196Z,21.75
2022-12-01T14:00:27.537Z,26.23
2022-12-01T14:03:14.012Z,20.95
2022-12-01T14:05:55.537Z,17.33
2022-12-01T14:08:29.280Z,21.05
2022-12-01T14:11:20.327Z,22.02
2022-12-01T14:13:51.577Z,21.45
2022-12-01T14:16:20.843Z,20.48
2022-12-01T14:18:54.727Z,24.60
2022-12-01T14:21:41.892Z,23.00
2022-12-01T14:24:20.787Z,16.90
2022-12-01T14:26:49.303Z,24.85
2022-12-01T14:29:27.756Z,28.25
2022-12-01T14:31:55.603Z,23.50
2022-12-01T14:34:26.671Z,19.58
2022-12-01T14:37:01.062Z,24.50
2022-12-01T14:39:31.710Z,24.38
2022-12-01T14:42:02.015Z,31.75
2022-12-01T14:44:36.244Z,28.15
2022-12-01T14:47:23.112Z,19.55
2022-12-01T14:49:53.508Z,21.55
2022-12-01T14:52:27.475Z,21.90
2022-12-01T14:55:04.656Z,20.35
2022-12-01T14:57:38.799Z,24.42
2022-12-01T15:00:14.055Z,26.65
2022-12-01T15:03:01.091Z,24.55
2022-12-01T15:05:29.644Z,24.58
2022-12-01T15:08:39.708Z,22.27
2022-12-01T15:10:56.479Z,20.92
2022-12-01T15:13:30.711Z,21.33
2022-12-01T15:16:00.098Z,28.60
2022-12-01T15:18:30.148Z,21.45
2022-12-01T15:21:07.120Z,23.05
2022-12-01T15:23:35.396Z,25.98
2022-12-01T15:26:03.644Z,32.22
2022-12-01T15:28:31.924Z,27.20
2022-12-01T15:31:00.713Z,29.42
2022-12-01T15:33:35.434Z,25.02
2022-12-01T15:36:05.583Z,28.45
2022-12-01T15:38:35.396Z,18.55
2022-12-01T15:43:56.941Z,23.30
2022-12-01T15:46:30.053Z,30.50
2022-12-01T15:49:32.673Z,20.02
2022-12-01T15:52:08.312Z,26.85
2022-12-01T15:54:37.172Z,20.35
2022-12-01T15:57:16.900Z,26.42
2022-12-01T15:59:46.240Z,25.75
2022-12-01T16:02:23.418Z,25.33
2022-12-01T16:05:00.348Z,24.05
2022-12-01T16:08:04.609Z,29.23
2022-12-01T16:10:29.333Z,24.42
2022-12-01T16:13:16.232Z,33.15
2022-12-01T16:15:44.450Z,27.15
2022-12-01T16:18:27.034Z,24.55
2022-12-01T16:20:55.702Z,20.40
2022-12-01T16:23:25.888Z,24.80
2022-12-01T16:25:56.695Z,28.08
2022-12-01T16:28:36.150Z,20.50
2022-12-01T16:31:05.736Z,25.20
2022-12-01T16:33:37.173Z,26.63
2022-12-01T16:36:05.150Z,21.48
2022-12-01T16:38:33.098Z,21.67
2022-12-01T16:41:02.589Z,26.83
2022-12-01T16:43:31.069Z,20.63
2022-12-01T16:46:00.496Z,25.40
2022-12-01T16:48:28.398Z,21.60
2022-12-01T16:50:57.670Z,25.75
2022-12-01T16:53:25.718Z,27.08
2022-12-01T16:55:57.902Z,34.65
2022-12-01T16:58:27.607Z,39.63
2022-12-01T17:00:55.701Z,25.35
2022-12-01T17:03:24.954Z,26.27
2022-12-01T17:05:53.979Z,30.85
2022-12-01T17:08:22.231Z,26.75
2022-12-01T17:10:50.913Z,27.80
2022-12-01T17:13:19.363Z,29.75
2022-12-01T17:15:48.461Z,25.98
2022-12-01T17:18:17.370Z,23.45
2022-12-01T17:20:56.802Z,22.48
2022-12-01T17:23:24.695Z,31.58
2022-12-01T17:25:52.851Z,19.52
2022-12-01T17:28:27.847Z,26.73
2022-12-01T17:30:56.126Z,22.70
2022-12-01T17:33:23.982Z,26.70
2022-12-01T17:35:52.191Z,22.90
2022-12-01T17:38:20.177Z,28.13
2022-12-01T17:41:00.838Z,22.67
2022-12-01T17:43:29.095Z,22.25
2022-12-01T17:45:57.167Z,25.95
2022-12-01T17:48:25.462Z,17.80
2022-12-01T17:50:54.038Z,27.92
2022-12-01T17:53:22.682Z,23.02
2022-12-01T17:55:51.295Z,23.33
2022-12-01T17:58:21.723Z,24.60
2022-12-01T18:00:53.140Z,26.02
2022-12-01T18:03:21.080Z,32.00
2022-12-01T18:05:56.281Z,28.52
2022-12-01T18:08:24.559Z,19.92
2022-12-01T18:10:52.527Z,26.98
2022-12-01T18:13:21.552Z,24.90
2022-12-01T18:15:52.587Z,25.90
2022-12-01T18:18:20.549Z,24.98
2022-12-01T18:20:48.708Z,29.35
2022-12-01T18:26:33.949Z,26.83
2022-12-01T18:33:38.557Z,24.88
2022-12-01T18:42:33.689Z,25.77
2022-12-01T18:48:21.912Z,29.02
2022-12-01T18:50:56.419Z,33.65
2022-12-01T18:53:27.681Z,28.88
2022-12-01T18:55:55.672Z,33.67
2022-12-01T18:58:23.820Z,29.83
2022-12-01T19:00:51.859Z,29.50
2022-12-01T19:03:19.985Z,31.20
2022-12-01T19:05:50.209Z,22.52
2022-12-01T19:08:18.385Z,29.95
2022-12-01T19:10:46.661Z,27.92
2022-12-01T19:13:14.888Z,35.10
2022-12-01T19:15:42.972Z,31.55
2022-12-01T19:18:11.592Z,29.40
2022-12-01T19:20:39.666Z,31.55
2022-12-01T19:23:07.843Z,26.27
2022-12-01T19:25:39.646Z,23.77
2022-12-01T19:28:18.205Z,37.23
2022-12-01T19:30:48.378Z,32.42
2022-12-01T19:33:17.010Z,29.52
2022-12-01T19:35:45.053Z,32.10
2022-12-01T19:38:13.109Z,37.58
2022-12-01T19:40:44.393Z,30.02
2022-12-01T19:43:13.325Z,33.55
2022-12-01T19:45:42.049Z,32.78
2022-12-01T19:48:10.143Z,34.83
2022-12-01T19:50:38.186Z,31.02
2022-12-01T19:53:06.341Z,31.15
2022-12-01T19:55:36.192Z,29.55
2022-12-01T19:58:06.921Z,27.77
2022-12-01T20:00:35.005Z,29.60
2022-12-01T20:03:03.894Z,38.85
2022-12-01T20:05:33.125Z,32.40
2022-12-01T20:08:02.460Z,36.30
2022-12-01T20:10:30.558Z,41.85
2022-12-01T20:12:58.668Z,30.83
2022-12-01T20:15:26.966Z,30.08
2022-12-01T20:17:55.584Z,41.45
2022-12-01T20:20:26.007Z,46.13
2022-12-01T20:22:54.351Z,42.75
2022-12-01T20:25:22.680Z,34.53
2022-12-01T20:27:51.006Z,35.95
2022-12-01T20:30:19.174Z,40.28
2022-12-01T20:32:47.191Z,33.95
2022-12-01T20:35:20.724Z,33.38
2022-12-01T20:37:48.817Z,36.30
2022-12-01T20:40:17.199Z,32.72
2022-12-01T20:42:45.591Z,35.45
2022-12-01T20:45:14.003Z,28.55
2022-12-01T20:47:42.171Z,33.67
2022-12-01T20:50:10.559Z,33.40
2022-12-01T20:52:41.854Z,28.50
2022-12-01T20:55:10.182Z,25.08
2022-12-01T20:57:40.995Z,35.20
2022-12-01T21:00:13.145Z,35.38
2022-12-01T21:02:43.891Z,39.38
2022-12-01T21:05:12.068Z,42.40
2022-12-01T21:07:40.279Z,34.33
2022-12-01T21:10:08.701Z,44.45
2022-12-01T21:12:57.985Z,34.88
2022-12-01T21:15:30.469Z,33.28
2022-12-01T21:18:04.279Z,34.00
2022-12-01T21:20:39.519Z,44.22
2022-12-01T21:23:11.944Z,46.08
2022-12-01T21:25:40.627Z,35.88
2022-12-01T21:28:25.500Z,44.55
2022-12-01T21:31:01.383Z,36.47
2022-12-01T21:33:34.505Z,45.70
2022-12-01T21:36:03.554Z,38.65
2022-12-01T21:38:32.633Z,45.75
2022-12-01T21:41:00.646Z,41.00
2022-12-01T21:43:35.234Z,45.13
2022-12-01T21:46:12.108Z,36.33
2022-12-01T21:48:40.273Z,40.55
2022-12-01T21:51:25.140Z,45.08
2022-12-01T21:53:56.945Z,48.13
2022-12-01T21:56:32.883Z,36.20
2022-12-01T21:59:11.950Z,42.15
2022-12-01T22:01:42.522Z,35.53
2022-12-01T22:04:16.039Z,32.37
2022-12-01T22:06:45.957Z,38.85
2022-12-01T22:09:26.469Z,47.47
2022-12-01T22:11:56.022Z,40.97
2022-12-01T22:14:29.406Z,34.05
2022-12-01T22:16:59.364Z,38.42
2022-12-01T22:19:29.363Z,40.22
2022-12-01T22:22:12.266Z,35.63
2022-12-01T22:25:15.252Z,29.38
2022-12-01T22:27:44.102Z,41.47
2022-12-01T22:30:19.686Z,40.70
2022-12-01T22:32:47.997Z,43.00
2022-12-01T22:35:21.974Z,48.58
2022-12-01T22:37:53.241Z,41.60
2022-12-01T22:40:27.662Z,41.70
2022-12-01T22:42:55.939Z,41.63
2022-12-01T22:45:25.486Z,42.15
2022-12-01T22:47:58.739Z,38.75
2022-12-01T22:50:31.699Z,42.50
2022-12-01T22:53:01.050Z,44.22
2022-12-01T22:55:29.123Z,34.30
2022-12-01T22:57:57.618Z,41.55
2022-12-01T23:00:25.993Z,41.45
2022-12-01T23:02:56.602Z,35.42
2022-12-01T23:05:26.086Z,42.13
2022-12-01T23:07:54.779Z,39.53
2022-12-01T23:10:35.530Z,46.25
2022-12-01T23:13:10.344Z,42.55
2022-12-01T23:15:39.885Z,43.22
2022-12-01T23:18:17.345Z,55.95
2022-12-01T23:20:47.287Z,49.80
2022-12-01T23:23:17.577Z,56.15
2022-12-01T23:25:47.285Z,46.80
2022-12-01T23:30:46.351Z,45.17
2022-12-01T23:33:18.241Z,38.67
2022-12-01T23:35:52.419Z,34.80
2022-12-01T23:38:23.115Z,46.60
2022-12-01T23:40:52.703Z,40.83
2022-12-01T23:43:22.165Z,41.72
2022-12-01T23:45:51.263Z,53.25
2022-12-01T23:48:21.631Z,44.45
2022-12-01T23:50:57.904Z,40.35
2022-12-01T23:53:28.271Z,32.88
2022-12-01T23:55:57.404Z,45.67
2022-12-01T23:58:25.571Z,43.67
